METAR Data
IDs: Format: Raw Decoded Include TAF

Data at: 1626 UTC 24 Aug 2019

PAOT 241553Z 00000KT 10SM BKN250 10/04 A2981 RMK AO2 SLP093 T01000039
PAOT 241453Z 35005KT 10SM BKN250 11/03 A2980 RMK AO2 SLP091 T01060033 58002
PAOT 241353Z AUTO 36007KT 10SM CLR 10/02 A2981 RMK AO2 SLP094 T01000022 TSNO
PAOT 241253Z AUTO 02005KT 10SM CLR 09/03 A2980 RMK AO2 SLP093 T00940028 TSNO
PAOT 241153Z AUTO 02008KT 10SM CLR 10/02 A2980 RMK AO2 SLP093 T01000022 10156 20100 51006 TSNO
PAOT 241053Z AUTO 02006KT 10SM CLR 11/03 A2980 RMK AO2 SLP091 T01060033 TSNO
PAOT 240953Z AUTO 01005KT 10SM CLR 11/03 A2979 RMK AO2 SLP089 T01110028 TSNO
PAOT 240853Z AUTO 36008KT 10SM CLR 12/04 A2979 RMK AO2 SLP086 T01220039 401720100 53011 TSNO
PAOT 240753Z 36008KT 10SM CLR 13/03 A2978 RMK AO2 SLP083 T01330028
PAOT 240653Z 36011KT 10SM CLR 14/03 A2976 RMK AO2 SLP078 T01440033
PAOT 240553Z 36012KT 10SM CLR 16/02 A2975 RMK AO2 SLP075 T01560022 10172 20156 52001
PAOT 240453Z 35011KT 10SM CLR 16/04 A2975 RMK AO2 SLP076 T01610044
PAOT 240353Z 35010KT 10SM CLR 17/03 A2975 RMK AO2 SLP074 T01670033
PAOT 240253Z 34010KT 10SM CLR 17/03 A2975 RMK AO2 SLP075 T01720028 53000
PAOT 240153Z 34010KT 10SM CLR 17/04 A2975 RMK AO2 SLP074 T01720039
PAOT 240053Z 34012KT 10SM CLR 17/04 A2975 RMK AO2 SLP074 T01670039
PAOT 232353Z 34010KT 10SM CLR 16/04 A2975 RMK AO2 SLP074 T01610044 10161 20111 51006
PAOT 232253Z 36011KT 10SM CLR 16/05 A2975 RMK AO2 SLP073 T01560050
PAOT 232153Z 36010KT 10SM CLR 15/05 A2974 RMK AO2 SLP072 T01500050
PAOT 232053Z 35016KT 10SM CLR 13/04 A2973 RMK AO2 SLP069 T01330044 53006
PAOT 231953Z 36017KT 10SM CLR 12/05 A2973 RMK AO2 SLP067 T01220050
PAOT 231853Z 35018KT 10SM FEW010 FEW035 12/06 A2972 RMK AO2 SLP063 T01170056
PAOT 231753Z 35016KT 10SM FEW010 FEW035 11/06 A2971 RMK AO2 SLP062 T01110061 10117 20100 58002
PAOT 231653Z 35015KT 10SM SCT037 11/07 A2972 RMK AO2 SLP063 T01110067
PAOT 231553Z 35014KT 10SM SCT037 11/07 A2972 RMK AO2 SLP065 T01060067
PAOT 231453Z 34012KT 10SM BKN110 11/07 A2972 RMK AO2 SLP065 T01110067 53003
PAOT 231353Z AUTO 34014KT 10SM BKN120 11/06 A2972 RMK AO2 SLP063 T01060061 TSNO
PAOT 231253Z AUTO 33013KT 10SM FEW036 11/06 A2972 RMK AO2 SLP063 T01060061 TSNO
PAOT 231153Z AUTO 33017KT 10SM FEW080 11/06 A2971 RMK AO2 SLP061 T01060056 10139 20106 58003 TSNO
PAOT 231053Z AUTO 34017KT 10SM OVC070 11/04 A2973 RMK AO2 SLP066 T01110044 TSNO
PAOT 230953Z AUTO 33016KT 10SM BKN065 OVC110 11/04 A2973 RMK AO2 SLP067 T01110044 TSNO
PAOT 230853Z AUTO 33017KT 10SM FEW070 BKN090 OVC110 12/05 A2972 RMK AO2 SLP064 T01170050 401670089 53003 TSNO
PAOT 230753Z 34017KT 10SM BKN080 OVC090 12/06 A2971 RMK AO2 SLP062 T01220056
PAOT 230653Z 33020KT 10SM FEW110 13/05 A2971 RMK AO2 SLP062 T01280050
PAOT 230553Z 34018KT 10SM SCT110 14/05 A2971 RMK AO2 SLP061 T01440050 10167 20144 53001
PAOT 230453Z 34014KT 10SM CLR 16/06 A2971 RMK AO2 SLP059 T01560056